Albury
Weather
Information

and Archive.
Albury Local Internet Skycam This service provided and funded by Albury Local Internet

Help keep our weatherstation running:

Lavington Weatherstation live data - Conditions of Use

Last updated on 21-May-2018 at 14:54:06
Temperature
  Currently 14.6 degrees C
  Apparent Temperature ("Wind Chill") is 11.4 degrees C
  Today has ranged from 10.4 at 02:54 to 15.8 at 13:51
  Yesterday ranged from  6.1 at 01:56 to 14.9 at 14:16
Wind
  Now:   11.9kmh, gusting to  14.8kmh from 198 degrees (SSW)
  Hour:  14.5kmh, gusting to  28.4kmh
Rainfall
   0.0mm Midnight to Midnight (ie, yesterday)
   0.0mm Since Midnight (ie, so far today)
   0.0mm 9am yesterday to 9am today
  21.8mm Total this month
Misc items
  Relative humidity is 57%
  Dewpoint is 6.2 deg C
  Estimated Cloudbase is 3500 feet
  Barometric Pressure is 1022.0 mbar
  Solar Insolation: 123 W/m^2
  UV Index: 1.4 (Low)
Top Solar flares in the last 24 hours

Last 24 hours Temperature Graph (click graph for history)
temperature

Last 24 hours Dynamic Wind display (click image for 4-hour image):
Wind Rose

Current Yarrawonga Weather Radar and Infrared Satellite Images from the BOM.

Hourly summaries in the tables below are cumulative and peak values
for the preceding hour, and instantaneous values at the hour.
So far today, 21-May-2018
Time   Barom.  Wind + Gust    Direction   RH   Rain    Temp.  Minimum    Maximum
01:00  1023.0  12.9  24.8kmh  236 ( SW)   92%  0.0mm   11.2  11.1@00:21 11.5@00:00
02:00  1023.0  12.4  25.6kmh  205 (SSW)   94%  0.0mm   10.7  10.7@01:54 11.2@01:00
03:00  1022.0  13.1  29.9kmh  212 (SSW)   95%  0.0mm   10.5  10.4@02:54 10.7@02:00
04:00  1022.0  12.9  25.6kmh  238 (WSW)   92%  0.0mm   10.9  10.5@03:00 10.9@03:53
05:00  1022.0  12.8  24.8kmh  221 ( SW)   93%  0.0mm   10.7  10.7@04:47 10.9@04:00
06:00  1022.0  11.5  23.0kmh  218 ( SW)   93%  0.0mm   10.7  10.7@05:00 10.9@05:27
07:00  1022.0  11.7  23.8kmh  186 ( S )   92%  0.0mm   10.8  10.7@06:00 10.9@06:28
08:00  1023.0  10.1  19.4kmh  296 (WNW)   91%  0.0mm   10.9  10.7@07:01 10.9@07:34
09:00  1023.0   9.2  23.8kmh  220 ( SW)   87%  0.0mm   11.4  10.9@08:00 11.6@08:55
10:00  1023.0  11.3  21.6kmh  189 ( S )   77%  0.0mm   13.0  11.4@09:00 13.2@09:46
11:00  1023.0  12.8  23.8kmh  162 (SSE)   71%  0.0mm   13.7  12.9@10:03 13.7@10:59
12:00  1023.0  14.4  29.2kmh  209 (SSW)   66%  0.0mm   14.1  13.7@11:00 14.6@11:09
13:00  1022.0  14.5  27.7kmh  227 ( SW)   60%  0.0mm   14.8  13.9@12:10 15.6@12:50
14:00  1021.0  15.2  32.4kmh  188 ( S )   54%  0.0mm   15.0  14.5@13:24 15.8@13:51
14:54  1022.0  14.5  28.4kmh  202 (SSW)   57%  0.0mm   14.6  14.4@14:43 15.2@14:09


Summary for yesterday, 20-May-2018
Time   Barom.  Wind + Gust    Direction   RH   Rain    Temp.  Minimum    Maximum
01:00  1023.0   6.1  10.8kmh  201 (SSW)   91%  0.0mm    6.9   7.0@00:49  8.1@00:07
02:00  1023.0   5.4   9.4kmh  235 ( SW)   93%  0.0mm    6.2   6.1@01:56  7.1@01:05
03:00  1022.0   5.5   9.4kmh  196 (SSW)   92%  0.0mm    6.6   6.2@02:00  7.0@02:25
04:00  1022.0   1.8   9.4kmh  191 ( S )   76%  0.0mm    8.5   6.3@03:09  8.4@03:59
05:00  1022.0   0.0   0.0kmh  232 ( SW)   83%  0.0mm    7.1   7.0@04:56  8.6@04:04
06:00  1023.0   0.0   0.0kmh  212 (SSW)   83%  0.0mm    7.3   6.4@05:34  8.4@05:11
07:00  1023.0   0.0   0.0kmh  229 ( SW)   77%  0.0mm    8.2   7.3@06:00  8.2@06:17
08:00  1024.0   0.0   0.0kmh  204 (SSW)   78%  0.0mm    8.4   8.2@07:00  8.4@07:52
09:00  1024.0   0.0   0.0kmh  211 (SSW)   76%  0.0mm    8.9   8.4@08:00  9.0@08:50
10:00  1024.0   0.0   0.0kmh  252 (WSW)   71%  0.0mm   10.4   8.9@09:00 10.4@09:55
11:00  1024.0   0.0   0.0kmh  188 ( S )   74%  0.0mm   10.1   9.8@10:55 11.4@10:16
12:00  1023.0   5.5  13.3kmh  254 (WSW)   68%  0.0mm   12.4  10.1@11:00 12.6@11:53
13:00  1022.0   9.9  20.2kmh  251 (WSW)   63%  0.0mm   14.2  12.4@12:00 14.5@12:46
14:00  1022.0  12.3  26.3kmh  197 (SSW)   68%  0.0mm   13.4  13.2@13:46 14.2@13:00
15:00  1022.0  13.1  24.5kmh  195 (SSW)   68%  0.0mm   13.5  12.9@14:30 14.9@14:16
16:00  1023.0  11.1  21.6kmh  194 (SSW)   71%  0.0mm   13.0  12.8@15:39 13.8@15:48
17:00  1023.0  10.6  19.4kmh  205 (SSW)   75%  0.0mm   12.5  12.5@16:51 13.0@16:00
18:00  1023.0  10.3  19.4kmh  199 (SSW)   81%  0.0mm   12.2  12.1@17:51 12.5@17:00
19:00  1023.0   6.5  17.6kmh  210 (SSW)   87%  0.0mm   11.5  11.4@18:40 12.2@18:00
20:00  1023.0   4.0  10.8kmh  299 (WNW)   89%  0.0mm   11.4  10.5@19:42 11.5@19:00
21:00  1023.0   7.6  12.6kmh  316 ( NW)   90%  0.0mm   11.2  11.0@20:38 11.7@20:12
22:00  1023.0   8.5  15.5kmh  234 ( SW)   82%  0.0mm   12.2  11.2@21:00 12.2@21:53
23:00  1023.0   8.7  16.2kmh  243 (WSW)   85%  0.0mm   11.4  11.3@22:51 12.3@22:01
00:00  1023.0  11.3  22.3kmh  192 (SSW)   89%  0.0mm   11.5  11.4@23:00 12.0@23:07